sensor_id;sensor_type;location;lat;lon;timestamp;P1;durP1;ratioP1;P2;durP2;ratioP2
21943;SDS011;11136;48.778;9.126;2022-12-31T00:00:29;1.33;;;0.70;;
21943;SDS011;11136;48.778;9.126;2022-12-31T00:02:55;0.65;;;0.30;;
21943;SDS011;11136;48.778;9.126;2022-12-31T00:05:21;0.50;;;0.50;;
21943;SDS011;11136;48.778;9.126;2022-12-31T00:07:48;1.67;;;0.30;;
21943;SDS011;11136;48.778;9.126;2022-12-31T00:10:14;1.08;;;0.60;;
21943;SDS011;11136;48.778;9.126;2022-12-31T00:12:40;0.50;;;0.50;;
21943;SDS011;11136;48.778;9.126;2022-12-31T00:15:07;0.40;;;0.40;;
21943;SDS011;11136;48.778;9.126;2022-12-31T00:17:33;0.73;;;0.73;;
21943;SDS011;11136;48.778;9.126;2022-12-31T00:19:59;0.50;;;0.50;;
21943;SDS011;11136;48.778;9.126;2022-12-31T00:22:25;0.57;;;0.52;;
21943;SDS011;11136;48.778;9.126;2022-12-31T00:24:51;1.17;;;0.57;;
21943;SDS011;11136;48.778;9.126;2022-12-31T00:27:17;1.10;;;0.45;;
21943;SDS011;11136;48.778;9.126;2022-12-31T00:29:46;1.27;;;0.93;;
21943;SDS011;11136;48.778;9.126;2022-12-31T00:32:12;1.52;;;0.38;;
21943;SDS011;11136;48.778;9.126;2022-12-31T00:34:38;3.60;;;0.60;;
21943;SDS011;11136;48.778;9.126;2022-12-31T00:37:04;1.63;;;0.60;;
21943;SDS011;11136;48.778;9.126;2022-12-31T00:39:30;1.40;;;0.60;;
21943;SDS011;11136;48.778;9.126;2022-12-31T00:41:56;1.88;;;0.55;;
21943;SDS011;11136;48.778;9.126;2022-12-31T00:44:22;1.42;;;0.80;;
21943;SDS011;11136;48.778;9.126;2022-12-31T00:46:48;2.35;;;0.60;;
21943;SDS011;11136;48.778;9.126;2022-12-31T00:49:14;0.60;;;0.60;;
21943;SDS011;11136;48.778;9.126;2022-12-31T00:51:40;0.85;;;0.60;;
21943;SDS011;11136;48.778;9.126;2022-12-31T00:54:06;2.47;;;0.60;;
21943;SDS011;11136;48.778;9.126;2022-12-31T00:56:33;0.57;;;0.43;;
21943;SDS011;11136;48.778;9.126;2022-12-31T00:58:59;1.13;;;0.55;;
21943;SDS011;11136;48.778;9.126;2022-12-31T01:01:26;1.02;;;0.73;;
21943;SDS011;11136;48.778;9.126;2022-12-31T01:03:54;0.60;;;0.50;;
21943;SDS011;11136;48.778;9.126;2022-12-31T01:06:20;0.63;;;0.50;;
21943;SDS011;11136;48.778;9.126;2022-12-31T01:08:47;0.75;;;0.60;;
21943;SDS011;11136;48.778;9.126;2022-12-31T01:11:13;1.02;;;0.65;;
21943;SDS011;11136;48.778;9.126;2022-12-31T01:16:14;1.63;;;0.90;;
21943;SDS011;11136;48.778;9.126;2022-12-31T01:18:41;0.60;;;0.60;;
21943;SDS011;11136;48.778;9.126;2022-12-31T01:21:08;1.02;;;0.55;;
21943;SDS011;11136;48.778;9.126;2022-12-31T01:23:34;0.80;;;0.52;;
21943;SDS011;11136;48.778;9.126;2022-12-31T01:26:02;0.50;;;0.50;;
21943;SDS011;11136;48.778;9.126;2022-12-31T01:28:28;1.25;;;0.63;;
21943;SDS011;11136;48.778;9.126;2022-12-31T01:30:55;0.88;;;0.70;;
21943;SDS011;11136;48.778;9.126;2022-12-31T01:33:21;0.77;;;0.50;;
21943;SDS011;11136;48.778;9.126;2022-12-31T01:35:47;0.50;;;0.40;;
21943;SDS011;11136;48.778;9.126;2022-12-31T01:38:13;1.05;;;0.60;;
21943;SDS011;11136;48.778;9.126;2022-12-31T01:40:39;2.25;;;0.60;;
21943;SDS011;11136;48.778;9.126;2022-12-31T01:43:16;0.93;;;0.50;;
21943;SDS011;11136;48.778;9.126;2022-12-31T01:45:43;0.95;;;0.77;;
21943;SDS011;11136;48.778;9.126;2022-12-31T01:48:11;0.52;;;0.40;;
21943;SDS011;11136;48.778;9.126;2022-12-31T01:50:38;0.77;;;0.60;;
21943;SDS011;11136;48.778;9.126;2022-12-31T01:53:05;0.47;;;0.45;;
21943;SDS011;11136;48.778;9.126;2022-12-31T01:55:48;0.38;;;0.38;;
21943;SDS011;11136;48.778;9.126;2022-12-31T01:58:17;0.63;;;0.50;;
21943;SDS011;11136;48.778;9.126;2022-12-31T02:00:44;0.47;;;0.45;;
21943;SDS011;11136;48.778;9.126;2022-12-31T02:03:12;0.93;;;0.50;;
21943;SDS011;11136;48.778;9.126;2022-12-31T02:08:05;0.85;;;0.70;;
21943;SDS011;11136;48.778;9.126;2022-12-31T02:10:31;0.85;;;0.57;;
21943;SDS011;11136;48.778;9.126;2022-12-31T02:12:57;3.55;;;0.75;;
21943;SDS011;11136;48.778;9.126;2022-12-31T02:15:28;1.20;;;0.40;;
21943;SDS011;11136;48.778;9.126;2022-12-31T02:18:14;0.63;;;0.63;;
21943;SDS011;11136;48.778;9.126;2022-12-31T02:21:02;0.75;;;0.47;;
21943;SDS011;11136;48.778;9.126;2022-12-31T02:31:27;1.02;;;0.50;;
21943;SDS011;11136;48.778;9.126;2022-12-31T02:36:29;0.70;;;0.60;;
21943;SDS011;11136;48.778;9.126;2022-12-31T02:38:56;1.17;;;0.63;;
21943;SDS011;11136;48.778;9.126;2022-12-31T02:41:23;0.80;;;0.52;;
21943;SDS011;11136;48.778;9.126;2022-12-31T02:47:06;1.10;;;0.52;;
21943;SDS011;11136;48.778;9.126;2022-12-31T02:49:39;2.22;;;0.75;;
21943;SDS011;11136;48.778;9.126;2022-12-31T02:52:13;2.10;;;0.63;;
21943;SDS011;11136;48.778;9.126;2022-12-31T02:54:52;1.02;;;0.70;;
21943;SDS011;11136;48.778;9.126;2022-12-31T03:02:39;1.20;;;0.70;;
21943;SDS011;11136;48.778;9.126;2022-12-31T03:05:06;0.75;;;0.50;;
21943;SDS011;11136;48.778;9.126;2022-12-31T03:07:34;0.80;;;0.60;;
21943;SDS011;11136;48.778;9.126;2022-12-31T03:10:00;1.63;;;0.30;;
21943;SDS011;11136;48.778;9.126;2022-12-31T03:12:27;1.15;;;0.60;;
21943;SDS011;11136;48.778;9.126;2022-12-31T03:15:16;0.50;;;0.40;;
21943;SDS011;11136;48.778;9.126;2022-12-31T03:17:53;3.60;;;0.85;;
21943;SDS011;11136;48.778;9.126;2022-12-31T03:20:21;1.05;;;0.70;;
21943;SDS011;11136;48.778;9.126;2022-12-31T03:23:07;0.45;;;0.40;;
21943;SDS011;11136;48.778;9.126;2022-12-31T03:25:33;0.77;;;0.60;;
21943;SDS011;11136;48.778;9.126;2022-12-31T03:28:05;0.50;;;0.50;;
21943;SDS011;11136;48.778;9.126;2022-12-31T03:30:32;0.60;;;0.40;;
21943;SDS011;11136;48.778;9.126;2022-12-31T03:32:58;0.85;;;0.40;;
21943;SDS011;11136;48.778;9.126;2022-12-31T03:35:26;2.30;;;0.57;;
21943;SDS011;11136;48.778;9.126;2022-12-31T03:37:52;1.10;;;0.65;;
21943;SDS011;11136;48.778;9.126;2022-12-31T03:40:18;0.70;;;0.50;;
21943;SDS011;11136;48.778;9.126;2022-12-31T03:42:45;1.45;;;0.63;;
21943;SDS011;11136;48.778;9.126;2022-12-31T03:45:11;0.55;;;0.52;;
21943;SDS011;11136;48.778;9.126;2022-12-31T03:47:37;3.47;;;0.90;;
21943;SDS011;11136;48.778;9.126;2022-12-31T03:50:04;0.80;;;0.30;;
21943;SDS011;11136;48.778;9.126;2022-12-31T03:52:30;0.95;;;0.60;;
21943;SDS011;11136;48.778;9.126;2022-12-31T03:54:56;0.90;;;0.47;;
21943;SDS011;11136;48.778;9.126;2022-12-31T03:57:22;0.70;;;0.60;;
21943;SDS011;11136;48.778;9.126;2022-12-31T03:59:48;1.15;;;0.60;;
21943;SDS011;11136;48.778;9.126;2022-12-31T04:02:15;0.52;;;0.50;;
21943;SDS011;11136;48.778;9.126;2022-12-31T04:04:41;3.13;;;0.40;;
21943;SDS011;11136;48.778;9.126;2022-12-31T04:07:07;1.98;;;0.80;;
21943;SDS011;11136;48.778;9.126;2022-12-31T04:09:33;0.55;;;0.50;;
21943;SDS011;11136;48.778;9.126;2022-12-31T04:11:59;0.47;;;0.40;;
21943;SDS011;11136;48.778;9.126;2022-12-31T04:14:25;2.15;;;0.60;;
21943;SDS011;11136;48.778;9.126;2022-12-31T04:16:51;3.03;;;0.50;;
21943;SDS011;11136;48.778;9.126;2022-12-31T04:19:17;1.38;;;0.65;;
21943;SDS011;11136;48.778;9.126;2022-12-31T04:21:43;1.38;;;0.55;;
21943;SDS011;11136;48.778;9.126;2022-12-31T04:24:09;1.90;;;0.45;;
21943;SDS011;11136;48.778;9.126;2022-12-31T04:26:36;0.75;;;0.40;;
21943;SDS011;11136;48.778;9.126;2022-12-31T04:29:02;3.00;;;0.65;;
21943;SDS011;11136;48.778;9.126;2022-12-31T04:31:28;0.82;;;0.50;;
21943;SDS011;11136;48.778;9.126;2022-12-31T04:33:54;0.32;;;0.32;;
21943;SDS011;11136;48.778;9.126;2022-12-31T04:36:20;0.40;;;0.40;;
21943;SDS011;11136;48.778;9.126;2022-12-31T04:38:46;0.73;;;0.52;;
21943;SDS011;11136;48.778;9.126;2022-12-31T04:41:12;0.45;;;0.30;;
21943;SDS011;11136;48.778;9.126;2022-12-31T04:43:41;0.60;;;0.47;;
21943;SDS011;11136;48.778;9.126;2022-12-31T04:46:08;1.15;;;0.75;;
21943;SDS011;11136;48.778;9.126;2022-12-31T04:48:34;1.52;;;0.50;;
21943;SDS011;11136;48.778;9.126;2022-12-31T04:51:00;0.65;;;0.50;;
21943;SDS011;11136;48.778;9.126;2022-12-31T04:53:26;3.72;;;0.40;;
21943;SDS011;11136;48.778;9.126;2022-12-31T04:55:53;0.38;;;0.35;;
21943;SDS011;11136;48.778;9.126;2022-12-31T04:58:19;1.70;;;0.52;;
21943;SDS011;11136;48.778;9.126;2022-12-31T05:00:45;0.88;;;0.63;;
21943;SDS011;11136;48.778;9.126;2022-12-31T05:03:14;1.65;;;0.50;;
21943;SDS011;11136;48.778;9.126;2022-12-31T05:05:40;0.77;;;0.38;;
21943;SDS011;11136;48.778;9.126;2022-12-31T05:08:10;0.63;;;0.40;;
21943;SDS011;11136;48.778;9.126;2022-12-31T05:10:40;0.60;;;0.32;;
21943;SDS011;11136;48.778;9.126;2022-12-31T05:13:06;2.17;;;0.50;;
21943;SDS011;11136;48.778;9.126;2022-12-31T05:15:32;0.35;;;0.35;;
21943;SDS011;11136;48.778;9.126;2022-12-31T05:17:58;0.95;;;0.30;;
21943;SDS011;11136;48.778;9.126;2022-12-31T05:20:24;3.15;;;0.55;;
21943;SDS011;11136;48.778;9.126;2022-12-31T05:22:50;0.50;;;0.40;;
21943;SDS011;11136;48.778;9.126;2022-12-31T05:25:16;0.73;;;0.25;;
21943;SDS011;11136;48.778;9.126;2022-12-31T05:27:42;1.20;;;0.40;;
21943;SDS011;11136;48.778;9.126;2022-12-31T05:30:08;0.43;;;0.43;;
21943;SDS011;11136;48.778;9.126;2022-12-31T05:32:35;0.52;;;0.50;;
21943;SDS011;11136;48.778;9.126;2022-12-31T05:35:01;0.32;;;0.30;;
21943;SDS011;11136;48.778;9.126;2022-12-31T05:37:27;0.30;;;0.30;;
21943;SDS011;11136;48.778;9.126;2022-12-31T05:39:54;1.85;;;0.50;;
21943;SDS011;11136;48.778;9.126;2022-12-31T05:42:20;0.65;;;0.40;;
21943;SDS011;11136;48.778;9.126;2022-12-31T05:44:46;2.85;;;0.50;;
21943;SDS011;11136;48.778;9.126;2022-12-31T05:47:13;0.90;;;0.47;;
21943;SDS011;11136;48.778;9.126;2022-12-31T05:49:39;1.10;;;0.40;;
21943;SDS011;11136;48.778;9.126;2022-12-31T05:52:05;3.08;;;0.57;;
21943;SDS011;11136;48.778;9.126;2022-12-31T05:54:31;3.35;;;0.70;;
21943;SDS011;11136;48.778;9.126;2022-12-31T05:56:57;1.77;;;0.40;;
21943;SDS011;11136;48.778;9.126;2022-12-31T05:59:23;0.63;;;0.47;;
21943;SDS011;11136;48.778;9.126;2022-12-31T06:01:49;0.38;;;0.38;;
21943;SDS011;11136;48.778;9.126;2022-12-31T06:04:15;1.42;;;0.40;;
21943;SDS011;11136;48.778;9.126;2022-12-31T06:06:41;0.60;;;0.43;;
21943;SDS011;11136;48.778;9.126;2022-12-31T06:09:07;0.47;;;0.40;;
21943;SDS011;11136;48.778;9.126;2022-12-31T06:11:33;0.35;;;0.30;;
21943;SDS011;11136;48.778;9.126;2022-12-31T06:13:59;0.43;;;0.43;;
21943;SDS011;11136;48.778;9.126;2022-12-31T06:16:25;2.65;;;0.30;;
21943;SDS011;11136;48.778;9.126;2022-12-31T06:18:52;1.65;;;0.60;;
21943;SDS011;11136;48.778;9.126;2022-12-31T06:21:18;0.73;;;0.40;;
21943;SDS011;11136;48.778;9.126;2022-12-31T06:23:44;0.50;;;0.50;;
21943;SDS011;11136;48.778;9.126;2022-12-31T06:26:10;0.90;;;0.40;;
21943;SDS011;11136;48.778;9.126;2022-12-31T06:28:36;0.95;;;0.43;;
21943;SDS011;11136;48.778;9.126;2022-12-31T06:31:03;1.05;;;0.82;;
21943;SDS011;11136;48.778;9.126;2022-12-31T06:33:30;0.43;;;0.43;;
21943;SDS011;11136;48.778;9.126;2022-12-31T06:35:56;1.00;;;0.40;;
21943;SDS011;11136;48.778;9.126;2022-12-31T06:38:23;0.70;;;0.60;;
21943;SDS011;11136;48.778;9.126;2022-12-31T06:40:49;0.52;;;0.50;;
21943;SDS011;11136;48.778;9.126;2022-12-31T06:43:15;0.70;;;0.50;;
21943;SDS011;11136;48.778;9.126;2022-12-31T06:45:41;2.53;;;0.77;;
21943;SDS011;11136;48.778;9.126;2022-12-31T06:48:07;0.80;;;0.50;;
21943;SDS011;11136;48.778;9.126;2022-12-31T06:50:33;0.60;;;0.50;;
21943;SDS011;11136;48.778;9.126;2022-12-31T06:53:00;0.30;;;0.30;;
21943;SDS011;11136;48.778;9.126;2022-12-31T06:55:26;1.25;;;0.70;;
21943;SDS011;11136;48.778;9.126;2022-12-31T06:57:52;0.38;;;0.38;;
21943;SDS011;11136;48.778;9.126;2022-12-31T07:00:18;0.40;;;0.40;;
21943;SDS011;11136;48.778;9.126;2022-12-31T07:05:26;1.63;;;0.50;;
21943;SDS011;11136;48.778;9.126;2022-12-31T07:12:59;0.50;;;0.30;;
21943;SDS011;11136;48.778;9.126;2022-12-31T07:18:18;0.73;;;0.40;;
21943;SDS011;11136;48.778;9.126;2022-12-31T07:20:48;0.88;;;0.60;;
21943;SDS011;11136;48.778;9.126;2022-12-31T07:23:15;1.05;;;0.50;;
21943;SDS011;11136;48.778;9.126;2022-12-31T07:25:43;1.00;;;0.50;;
21943;SDS011;11136;48.778;9.126;2022-12-31T07:28:30;2.27;;;0.80;;
21943;SDS011;11136;48.778;9.126;2022-12-31T07:35:55;2.58;;;0.90;;
21943;SDS011;11136;48.778;9.126;2022-12-31T07:48:20;0.90;;;0.50;;
21943;SDS011;11136;48.778;9.126;2022-12-31T07:50:47;0.30;;;0.30;;
21943;SDS011;11136;48.778;9.126;2022-12-31T07:53:13;0.73;;;0.50;;
21943;SDS011;11136;48.778;9.126;2022-12-31T07:55:39;1.00;;;0.50;;
21943;SDS011;11136;48.778;9.126;2022-12-31T07:58:07;0.35;;;0.25;;
21943;SDS011;11136;48.778;9.126;2022-12-31T08:00:41;0.40;;;0.40;;
21943;SDS011;11136;48.778;9.126;2022-12-31T08:08:21;0.82;;;0.60;;
21943;SDS011;11136;48.778;9.126;2022-12-31T08:13:18;1.38;;;0.65;;
21943;SDS011;11136;48.778;9.126;2022-12-31T08:15:44;1.30;;;0.47;;
21943;SDS011;11136;48.778;9.126;2022-12-31T08:18:10;0.40;;;0.40;;
21943;SDS011;11136;48.778;9.126;2022-12-31T08:20:54;0.40;;;0.40;;
21943;SDS011;11136;48.778;9.126;2022-12-31T08:23:30;1.00;;;0.90;;
21943;SDS011;11136;48.778;9.126;2022-12-31T08:29:13;0.52;;;0.50;;
21943;SDS011;11136;48.778;9.126;2022-12-31T08:31:43;0.32;;;0.30;;
21943;SDS011;11136;48.778;9.126;2022-12-31T08:34:26;2.03;;;0.50;;
21943;SDS011;11136;48.778;9.126;2022-12-31T08:42:41;0.95;;;0.60;;
21943;SDS011;11136;48.778;9.126;2022-12-31T08:45:19;0.68;;;0.55;;
21943;SDS011;11136;48.778;9.126;2022-12-31T08:47:50;0.95;;;0.50;;
21943;SDS011;11136;48.778;9.126;2022-12-31T08:50:21;2.60;;;0.70;;
21943;SDS011;11136;48.778;9.126;2022-12-31T08:52:47;1.02;;;0.80;;
21943;SDS011;11136;48.778;9.126;2022-12-31T08:55:14;0.80;;;0.57;;
21943;SDS011;11136;48.778;9.126;2022-12-31T08:57:45;0.57;;;0.47;;
21943;SDS011;11136;48.778;9.126;2022-12-31T09:00:15;0.65;;;0.32;;
21943;SDS011;11136;48.778;9.126;2022-12-31T09:03:01;1.23;;;0.82;;
21943;SDS011;11136;48.778;9.126;2022-12-31T09:08:27;0.50;;;0.40;;
21943;SDS011;11136;48.778;9.126;2022-12-31T09:10:57;2.10;;;0.88;;
21943;SDS011;11136;48.778;9.126;2022-12-31T09:13:27;2.45;;;0.50;;
21943;SDS011;11136;48.778;9.126;2022-12-31T09:15:58;1.05;;;0.65;;
21943;SDS011;11136;48.778;9.126;2022-12-31T09:18:29;0.30;;;0.30;;
21943;SDS011;11136;48.778;9.126;2022-12-31T09:20:55;1.20;;;0.63;;
21943;SDS011;11136;48.778;9.126;2022-12-31T09:23:21;0.93;;;0.50;;
21943;SDS011;11136;48.778;9.126;2022-12-31T09:31:03;0.63;;;0.43;;
21943;SDS011;11136;48.778;9.126;2022-12-31T09:36:00;2.35;;;0.60;;
21943;SDS011;11136;48.778;9.126;2022-12-31T09:41:29;0.50;;;0.50;;
21943;SDS011;11136;48.778;9.126;2022-12-31T09:49:50;0.65;;;0.32;;
21943;SDS011;11136;48.778;9.126;2022-12-31T09:52:39;2.17;;;0.52;;
21943;SDS011;11136;48.778;9.126;2022-12-31T09:57:38;0.70;;;0.50;;
21943;SDS011;11136;48.778;9.126;2022-12-31T10:00:10;0.40;;;0.40;;
21943;SDS011;11136;48.778;9.126;2022-12-31T10:05:37;1.33;;;0.47;;
21943;SDS011;11136;48.778;9.126;2022-12-31T10:10:45;2.28;;;0.63;;
21943;SDS011;11136;48.778;9.126;2022-12-31T10:39:14;2.42;;;0.50;;
21943;SDS011;11136;48.778;9.126;2022-12-31T10:49:47;0.75;;;0.50;;
21943;SDS011;11136;48.778;9.126;2022-12-31T10:55:02;0.38;;;0.35;;
21943;SDS011;11136;48.778;9.126;2022-12-31T11:00:12;0.90;;;0.50;;
21943;SDS011;11136;48.778;9.126;2022-12-31T11:07:38;0.40;;;0.40;;
21943;SDS011;11136;48.778;9.126;2022-12-31T11:17:50;0.52;;;0.50;;
21943;SDS011;11136;48.778;9.126;2022-12-31T11:20:41;0.40;;;0.32;;
21943;SDS011;11136;48.778;9.126;2022-12-31T11:23:19;0.30;;;0.30;;
21943;SDS011;11136;48.778;9.126;2022-12-31T11:36:32;0.45;;;0.45;;
21943;SDS011;11136;48.778;9.126;2022-12-31T11:39:19;0.57;;;0.45;;
21943;SDS011;11136;48.778;9.126;2022-12-31T11:41:48;0.60;;;0.57;;
21943;SDS011;11136;48.778;9.126;2022-12-31T11:44:18;1.08;;;0.40;;
21943;SDS011;11136;48.778;9.126;2022-12-31T11:47:02;0.70;;;0.40;;
21943;SDS011;11136;48.778;9.126;2022-12-31T11:57:26;1.00;;;0.40;;
21943;SDS011;11136;48.778;9.126;2022-12-31T11:59:58;0.98;;;0.50;;
21943;SDS011;11136;48.778;9.126;2022-12-31T12:02:26;0.57;;;0.50;;
21943;SDS011;11136;48.778;9.126;2022-12-31T12:04:54;0.60;;;0.50;;
21943;SDS011;11136;48.778;9.126;2022-12-31T12:07:20;1.48;;;0.60;;
21943;SDS011;11136;48.778;9.126;2022-12-31T12:09:48;1.25;;;0.57;;
21943;SDS011;11136;48.778;9.126;2022-12-31T12:12:14;0.30;;;0.20;;
21943;SDS011;11136;48.778;9.126;2022-12-31T12:14:41;0.57;;;0.40;;
21943;SDS011;11136;48.778;9.126;2022-12-31T12:17:09;0.68;;;0.40;;
21943;SDS011;11136;48.778;9.126;2022-12-31T12:19:42;0.70;;;0.47;;
21943;SDS011;11136;48.778;9.126;2022-12-31T12:22:12;0.73;;;0.30;;
21943;SDS011;11136;48.778;9.126;2022-12-31T12:24:39;1.13;;;0.60;;
21943;SDS011;11136;48.778;9.126;2022-12-31T12:27:17;0.82;;;0.73;;
21943;SDS011;11136;48.778;9.126;2022-12-31T12:29:44;0.50;;;0.50;;
21943;SDS011;11136;48.778;9.126;2022-12-31T12:32:15;0.77;;;0.52;;
21943;SDS011;11136;48.778;9.126;2022-12-31T12:34:41;0.70;;;0.68;;
21943;SDS011;11136;48.778;9.126;2022-12-31T12:39:43;0.52;;;0.40;;
21943;SDS011;11136;48.778;9.126;2022-12-31T12:42:09;0.40;;;0.40;;
21943;SDS011;11136;48.778;9.126;2022-12-31T12:44:37;1.35;;;0.50;;
21943;SDS011;11136;48.778;9.126;2022-12-31T12:47:05;0.40;;;0.40;;
21943;SDS011;11136;48.778;9.126;2022-12-31T12:49:35;0.65;;;0.50;;
21943;SDS011;11136;48.778;9.126;2022-12-31T12:52:08;1.52;;;0.50;;
21943;SDS011;11136;48.778;9.126;2022-12-31T12:57:44;0.77;;;0.50;;
21943;SDS011;11136;48.778;9.126;2022-12-31T13:07:31;0.65;;;0.40;;
21943;SDS011;11136;48.778;9.126;2022-12-31T13:10:14;0.30;;;0.30;;
21943;SDS011;11136;48.778;9.126;2022-12-31T13:12:55;0.40;;;0.40;;
21943;SDS011;11136;48.778;9.126;2022-12-31T13:15:33;0.70;;;0.47;;
21943;SDS011;11136;48.778;9.126;2022-12-31T13:22:58;0.82;;;0.52;;
21943;SDS011;11136;48.778;9.126;2022-12-31T13:28:08;0.25;;;0.25;;
21943;SDS011;11136;48.778;9.126;2022-12-31T13:30:39;2.00;;;0.40;;
21943;SDS011;11136;48.778;9.126;2022-12-31T13:33:16;1.27;;;0.40;;
21943;SDS011;11136;48.778;9.126;2022-12-31T13:35:47;0.75;;;0.60;;
21943;SDS011;11136;48.778;9.126;2022-12-31T13:40:44;3.03;;;0.63;;
21943;SDS011;11136;48.778;9.126;2022-12-31T13:43:16;0.63;;;0.50;;
21943;SDS011;11136;48.778;9.126;2022-12-31T13:45:43;1.20;;;0.77;;
21943;SDS011;11136;48.778;9.126;2022-12-31T13:48:15;1.85;;;0.60;;
21943;SDS011;11136;48.778;9.126;2022-12-31T13:50:45;1.20;;;0.50;;
21943;SDS011;11136;48.778;9.126;2022-12-31T13:56:07;2.60;;;0.80;;
21943;SDS011;11136;48.778;9.126;2022-12-31T13:58:37;5.20;;;3.80;;
21943;SDS011;11136;48.778;9.126;2022-12-31T14:08:46;0.98;;;0.68;;
21943;SDS011;11136;48.778;9.126;2022-12-31T14:11:16;0.90;;;0.68;;
21943;SDS011;11136;48.778;9.126;2022-12-31T14:16:25;1.08;;;0.50;;
21943;SDS011;11136;48.778;9.126;2022-12-31T14:24:08;1.23;;;0.70;;
21943;SDS011;11136;48.778;9.126;2022-12-31T14:26:39;1.75;;;0.85;;
21943;SDS011;11136;48.778;9.126;2022-12-31T14:42:11;3.95;;;1.75;;
21943;SDS011;11136;48.778;9.126;2022-12-31T14:45:29;3.13;;;1.85;;
21943;SDS011;11136;48.778;9.126;2022-12-31T14:50:19;2.67;;;1.23;;
21943;SDS011;11136;48.778;9.126;2022-12-31T14:57:41;0.90;;;0.80;;
21943;SDS011;11136;48.778;9.126;2022-12-31T15:05:50;1.10;;;0.73;;
21943;SDS011;11136;48.778;9.126;2022-12-31T15:13:35;1.38;;;0.70;;
21943;SDS011;11136;48.778;9.126;2022-12-31T15:23:38;2.05;;;0.43;;
21943;SDS011;11136;48.778;9.126;2022-12-31T15:26:06;1.00;;;0.65;;
21943;SDS011;11136;48.778;9.126;2022-12-31T15:28:43;1.83;;;0.68;;
21943;SDS011;11136;48.778;9.126;2022-12-31T15:33:40;2.80;;;1.38;;
21943;SDS011;11136;48.778;9.126;2022-12-31T15:36:11;9.10;;;3.40;;
21943;SDS011;11136;48.778;9.126;2022-12-31T15:38:37;4.72;;;2.05;;
21943;SDS011;11136;48.778;9.126;2022-12-31T15:41:14;6.13;;;2.55;;
21943;SDS011;11136;48.778;9.126;2022-12-31T15:44:01;72.35;;;29.55;;
21943;SDS011;11136;48.778;9.126;2022-12-31T15:46:31;36.60;;;15.27;;
21943;SDS011;11136;48.778;9.126;2022-12-31T15:49:08;15.48;;;6.38;;
21943;SDS011;11136;48.778;9.126;2022-12-31T15:51:46;11.75;;;4.82;;
21943;SDS011;11136;48.778;9.126;2022-12-31T15:56:58;4.13;;;2.53;;
21943;SDS011;11136;48.778;9.126;2022-12-31T15:59:25;6.57;;;2.42;;
21943;SDS011;11136;48.778;9.126;2022-12-31T16:01:52;3.58;;;2.33;;
21943;SDS011;11136;48.778;9.126;2022-12-31T16:04:25;7.35;;;3.85;;
21943;SDS011;11136;48.778;9.126;2022-12-31T16:06:52;7.30;;;3.08;;
21943;SDS011;11136;48.778;9.126;2022-12-31T16:09:26;7.40;;;4.40;;
21943;SDS011;11136;48.778;9.126;2022-12-31T16:11:53;6.13;;;3.22;;
21943;SDS011;11136;48.778;9.126;2022-12-31T16:14:24;3.78;;;2.33;;
21943;SDS011;11136;48.778;9.126;2022-12-31T16:16:58;8.60;;;4.18;;
21943;SDS011;11136;48.778;9.126;2022-12-31T16:19:43;7.35;;;5.00;;
21943;SDS011;11136;48.778;9.126;2022-12-31T16:22:13;14.75;;;8.95;;
21943;SDS011;11136;48.778;9.126;2022-12-31T16:24:40;19.98;;;12.73;;
21943;SDS011;11136;48.778;9.126;2022-12-31T16:27:07;16.80;;;9.48;;
21943;SDS011;11136;48.778;9.126;2022-12-31T16:29:35;16.65;;;9.30;;
21943;SDS011;11136;48.778;9.126;2022-12-31T16:32:01;13.65;;;7.90;;
21943;SDS011;11136;48.778;9.126;2022-12-31T16:34:27;18.65;;;10.43;;
21943;SDS011;11136;48.778;9.126;2022-12-31T16:36:55;21.80;;;13.02;;
21943;SDS011;11136;48.778;9.126;2022-12-31T16:39:23;13.48;;;7.35;;
21943;SDS011;11136;48.778;9.126;2022-12-31T16:41:49;10.57;;;6.88;;
21943;SDS011;11136;48.778;9.126;2022-12-31T16:44:25;25.10;;;15.70;;
21943;SDS011;11136;48.778;9.126;2022-12-31T16:46:53;20.80;;;12.63;;
21943;SDS011;11136;48.778;9.126;2022-12-31T16:49:21;20.55;;;14.57;;
21943;SDS011;11136;48.778;9.126;2022-12-31T16:51:47;15.05;;;9.75;;
21943;SDS011;11136;48.778;9.126;2022-12-31T16:54:19;15.10;;;9.98;;
21943;SDS011;11136;48.778;9.126;2022-12-31T16:56:48;16.45;;;9.27;;
21943;SDS011;11136;48.778;9.126;2022-12-31T17:01:44;19.92;;;12.85;;
21943;SDS011;11136;48.778;9.126;2022-12-31T17:04:11;18.52;;;11.75;;
21943;SDS011;11136;48.778;9.126;2022-12-31T17:06:41;17.05;;;8.02;;
21943;SDS011;11136;48.778;9.126;2022-12-31T17:14:14;30.17;;;17.65;;
21943;SDS011;11136;48.778;9.126;2022-12-31T17:16:51;23.50;;;13.80;;
21943;SDS011;11136;48.778;9.126;2022-12-31T17:19:40;11.65;;;7.03;;
21943;SDS011;11136;48.778;9.126;2022-12-31T17:22:06;27.00;;;17.38;;
21943;SDS011;11136;48.778;9.126;2022-12-31T17:24:33;20.83;;;13.15;;
21943;SDS011;11136;48.778;9.126;2022-12-31T17:27:04;15.82;;;9.73;;
21943;SDS011;11136;48.778;9.126;2022-12-31T17:29:30;28.67;;;14.95;;
21943;SDS011;11136;48.778;9.126;2022-12-31T17:31:57;21.20;;;12.73;;
21943;SDS011;11136;48.778;9.126;2022-12-31T17:35:12;20.40;;;12.43;;
21943;SDS011;11136;48.778;9.126;2022-12-31T17:39:49;15.77;;;9.68;;
21943;SDS011;11136;48.778;9.126;2022-12-31T17:42:35;15.73;;;9.17;;
21943;SDS011;11136;48.778;9.126;2022-12-31T17:45:06;15.35;;;7.43;;
21943;SDS011;11136;48.778;9.126;2022-12-31T17:47:34;11.73;;;7.10;;
21943;SDS011;11136;48.778;9.126;2022-12-31T17:50:20;14.18;;;8.95;;
21943;SDS011;11136;48.778;9.126;2022-12-31T17:52:47;12.18;;;4.45;;
21943;SDS011;11136;48.778;9.126;2022-12-31T17:55:13;17.38;;;8.35;;
21943;SDS011;11136;48.778;9.126;2022-12-31T17:57:42;10.13;;;5.53;;
21943;SDS011;11136;48.778;9.126;2022-12-31T18:00:11;9.65;;;6.32;;
21943;SDS011;11136;48.778;9.126;2022-12-31T18:02:40;8.38;;;5.28;;
21943;SDS011;11136;48.778;9.126;2022-12-31T18:05:13;16.83;;;10.85;;
21943;SDS011;11136;48.778;9.126;2022-12-31T18:07:40;25.52;;;13.13;;
21943;SDS011;11136;48.778;9.126;2022-12-31T18:10:07;8.93;;;5.00;;
21943;SDS011;11136;48.778;9.126;2022-12-31T18:12:33;12.57;;;8.57;;
21943;SDS011;11136;48.778;9.126;2022-12-31T18:14:59;13.85;;;9.15;;
21943;SDS011;11136;48.778;9.126;2022-12-31T18:17:26;16.88;;;10.18;;
21943;SDS011;11136;48.778;9.126;2022-12-31T18:19:52;24.73;;;14.25;;
21943;SDS011;11136;48.778;9.126;2022-12-31T18:22:19;23.52;;;16.25;;
21943;SDS011;11136;48.778;9.126;2022-12-31T18:24:45;18.13;;;12.02;;
21943;SDS011;11136;48.778;9.126;2022-12-31T18:27:15;14.32;;;9.73;;
21943;SDS011;11136;48.778;9.126;2022-12-31T18:29:41;10.82;;;7.70;;
21943;SDS011;11136;48.778;9.126;2022-12-31T18:34:42;4.20;;;3.28;;
21943;SDS011;11136;48.778;9.126;2022-12-31T18:37:11;9.60;;;5.10;;
21943;SDS011;11136;48.778;9.126;2022-12-31T18:39:37;11.45;;;6.63;;
21943;SDS011;11136;48.778;9.126;2022-12-31T18:42:04;8.98;;;6.13;;
21943;SDS011;11136;48.778;9.126;2022-12-31T18:44:30;8.68;;;5.07;;
21943;SDS011;11136;48.778;9.126;2022-12-31T18:46:56;8.05;;;4.57;;
21943;SDS011;11136;48.778;9.126;2022-12-31T18:49:22;7.32;;;5.45;;
21943;SDS011;11136;48.778;9.126;2022-12-31T18:51:48;11.15;;;5.22;;
21943;SDS011;11136;48.778;9.126;2022-12-31T18:54:18;8.43;;;5.18;;
21943;SDS011;11136;48.778;9.126;2022-12-31T18:56:44;4.18;;;3.08;;
21943;SDS011;11136;48.778;9.126;2022-12-31T18:59:10;6.07;;;4.00;;
21943;SDS011;11136;48.778;9.126;2022-12-31T19:01:37;7.43;;;4.63;;
21943;SDS011;11136;48.778;9.126;2022-12-31T19:06:37;14.10;;;6.55;;
21943;SDS011;11136;48.778;9.126;2022-12-31T19:09:03;15.60;;;5.82;;
21943;SDS011;11136;48.778;9.126;2022-12-31T19:11:29;8.50;;;5.22;;
21943;SDS011;11136;48.778;9.126;2022-12-31T19:13:57;9.38;;;4.88;;
21943;SDS011;11136;48.778;9.126;2022-12-31T19:16:23;9.88;;;4.90;;
21943;SDS011;11136;48.778;9.126;2022-12-31T19:18:49;22.17;;;13.02;;
21943;SDS011;11136;48.778;9.126;2022-12-31T19:21:16;26.50;;;16.83;;